首页
METAR-TAF:

METAR-TAF

机场 :

貝爾格勒尼古拉·特斯拉機場

贝尔格莱德, 塞尔维亚

纬度: 44-49N, 经度: 020-17E, 海拔: 96米

当前天气观测

该预报发布于39分钟前的22:00 UTC
风速2节,风向西转西北
温度 25°C
湿度 69%
气压 1022 hPa
能见度10公里或以上
1500米以下无云,无积雨云

METAR: LYBE 262200Z 29002KT CAVOK 25/19 Q1022 NOSIG

时间: 00:39 (22:39 UTC)

预报

该预报发布于5小时和39分钟前的17:00 UTC
预报有效从26日的 18点(UTC)到 27日的 18点(UTC)
风速4节,风向东北
能见度10公里或以上
1500米以下无云,无积雨云
短暂存在
从 27日的 11点(UTC)到 27日的 15点(UTC)
风速12节,风向西北

TAF: LYBE 261700Z 2618/2718 04004KT CAVOK TX33/2713Z TN20/2703Z TEMPO 2711/2715 32012KT

超过4000个机场的气象观测和天气预报(METAR&TAF报告)。

可查询的气象台以黄色和红色小点在地图上表示。

将鼠标移到小点上方,可查看气象台名称。

然后点击查看天气观测和预报。

如需切换地图:点击带黑十字的绿色按钮放大地图;点击带横线的绿色按钮缩小地图;或者点击绿色箭头查看邻近地区的地图。


METAR-TAF: